Terminal Aerodrome Forecast
Issued by NWS Wilmington, NC

Current Version | Previous Version | Graphics & Text | Print | Product List | Glossary Off
Versions: 1 2 3 4 5 6 7 8 9 10 11 12 13 14 15 16 17 18 19 20

427
FTUS42 KILM 222320
TAFILM
TAF
KILM 222320Z 2300/2324 08011G19KT P6SM BKN060
     FM230200 06010KT P6SM FEW060
     FM232000 08008KT P6SM SKC=

USA.gov is the U.S. government's official web portal to all federal, state and local government web resources and services.